sensor_id;sensor_type;location;lat;lon;timestamp;P1;durP1;ratioP1;P2;durP2;ratioP2
10979;SDS011;5543;51.734;8.744;2023-06-22T00:00:33;14.07;;;9.95;;
10979;SDS011;5543;51.734;8.744;2023-06-22T00:03:01;14.20;;;9.88;;
10979;SDS011;5543;51.734;8.744;2023-06-22T00:05:30;13.93;;;9.60;;
10979;SDS011;5543;51.734;8.744;2023-06-22T00:08:01;14.27;;;10.52;;
10979;SDS011;5543;51.734;8.744;2023-06-22T00:10:30;15.43;;;9.50;;
10979;SDS011;5543;51.734;8.744;2023-06-22T00:12:58;13.98;;;10.55;;
10979;SDS011;5543;51.734;8.744;2023-06-22T00:15:27;14.05;;;10.40;;
10979;SDS011;5543;51.734;8.744;2023-06-22T00:17:55;13.25;;;9.73;;
10979;SDS011;5543;51.734;8.744;2023-06-22T00:20:25;14.55;;;8.75;;
10979;SDS011;5543;51.734;8.744;2023-06-22T00:22:57;14.10;;;9.85;;
10979;SDS011;5543;51.734;8.744;2023-06-22T00:25:27;13.07;;;9.98;;
10979;SDS011;5543;51.734;8.744;2023-06-22T00:27:55;11.98;;;9.15;;
10979;SDS011;5543;51.734;8.744;2023-06-22T00:30:23;15.13;;;10.18;;
10979;SDS011;5543;51.734;8.744;2023-06-22T00:32:54;13.52;;;9.75;;
10979;SDS011;5543;51.734;8.744;2023-06-22T00:35:22;14.82;;;10.25;;
10979;SDS011;5543;51.734;8.744;2023-06-22T00:37:55;13.05;;;10.25;;
10979;SDS011;5543;51.734;8.744;2023-06-22T00:40:28;13.50;;;9.60;;
10979;SDS011;5543;51.734;8.744;2023-06-22T00:42:57;13.45;;;9.75;;
10979;SDS011;5543;51.734;8.744;2023-06-22T00:45:25;12.35;;;9.25;;
10979;SDS011;5543;51.734;8.744;2023-06-22T00:47:55;13.60;;;10.60;;
10979;SDS011;5543;51.734;8.744;2023-06-22T00:50:26;12.75;;;9.35;;
10979;SDS011;5543;51.734;8.744;2023-06-22T00:52:55;15.95;;;9.80;;
10979;SDS011;5543;51.734;8.744;2023-06-22T00:55:25;13.32;;;10.32;;
10979;SDS011;5543;51.734;8.744;2023-06-22T00:57:55;14.02;;;10.65;;
10979;SDS011;5543;51.734;8.744;2023-06-22T01:00:23;12.82;;;8.80;;
10979;SDS011;5543;51.734;8.744;2023-06-22T01:02:52;12.93;;;9.35;;
10979;SDS011;5543;51.734;8.744;2023-06-22T01:05:21;12.15;;;9.25;;
10979;SDS011;5543;51.734;8.744;2023-06-22T01:07:54;10.88;;;7.75;;
10979;SDS011;5543;51.734;8.744;2023-06-22T01:10:30;12.05;;;9.60;;
10979;SDS011;5543;51.734;8.744;2023-06-22T01:13:08;14.00;;;10.57;;
10979;SDS011;5543;51.734;8.744;2023-06-22T01:15:44;14.38;;;9.50;;
10979;SDS011;5543;51.734;8.744;2023-06-22T01:18:17;12.30;;;9.38;;
10979;SDS011;5543;51.734;8.744;2023-06-22T01:20:46;13.07;;;8.80;;
10979;SDS011;5543;51.734;8.744;2023-06-22T01:23:18;11.57;;;9.25;;
10979;SDS011;5543;51.734;8.744;2023-06-22T01:25:57;13.40;;;9.27;;
10979;SDS011;5543;51.734;8.744;2023-06-22T01:28:41;11.40;;;9.27;;
10979;SDS011;5543;51.734;8.744;2023-06-22T01:31:11;12.73;;;9.60;;
10979;SDS011;5543;51.734;8.744;2023-06-22T01:33:41;10.77;;;9.18;;
10979;SDS011;5543;51.734;8.744;2023-06-22T01:36:12;11.02;;;8.77;;
10979;SDS011;5543;51.734;8.744;2023-06-22T01:38:41;11.40;;;8.68;;
10979;SDS011;5543;51.734;8.744;2023-06-22T01:41:10;14.82;;;10.25;;
10979;SDS011;5543;51.734;8.744;2023-06-22T01:43:41;14.18;;;9.05;;
10979;SDS011;5543;51.734;8.744;2023-06-22T01:46:10;12.85;;;9.40;;
10979;SDS011;5543;51.734;8.744;2023-06-22T01:48:39;14.05;;;9.20;;
10979;SDS011;5543;51.734;8.744;2023-06-22T01:51:08;14.82;;;8.32;;
10979;SDS011;5543;51.734;8.744;2023-06-22T01:53:36;13.40;;;9.85;;
10979;SDS011;5543;51.734;8.744;2023-06-22T01:56:04;11.73;;;9.02;;
10979;SDS011;5543;51.734;8.744;2023-06-22T01:58:32;14.10;;;8.93;;
10979;SDS011;5543;51.734;8.744;2023-06-22T02:01:06;12.68;;;9.80;;
10979;SDS011;5543;51.734;8.744;2023-06-22T02:03:42;12.52;;;9.55;;
10979;SDS011;5543;51.734;8.744;2023-06-22T02:06:16;13.60;;;9.40;;
10979;SDS011;5543;51.734;8.744;2023-06-22T02:08:51;12.40;;;9.85;;
10979;SDS011;5543;51.734;8.744;2023-06-22T02:11:24;11.48;;;9.05;;
10979;SDS011;5543;51.734;8.744;2023-06-22T02:13:55;12.48;;;9.00;;
10979;SDS011;5543;51.734;8.744;2023-06-22T02:16:26;10.75;;;8.75;;
10979;SDS011;5543;51.734;8.744;2023-06-22T02:18:56;13.05;;;8.55;;
10979;SDS011;5543;51.734;8.744;2023-06-22T02:21:28;11.80;;;8.75;;
10979;SDS011;5543;51.734;8.744;2023-06-22T02:23:57;11.15;;;8.70;;
10979;SDS011;5543;51.734;8.744;2023-06-22T02:26:25;12.02;;;9.10;;
10979;SDS011;5543;51.734;8.744;2023-06-22T02:28:54;12.90;;;9.40;;
10979;SDS011;5543;51.734;8.744;2023-06-22T02:31:22;12.27;;;9.30;;
10979;SDS011;5543;51.734;8.744;2023-06-22T02:33:59;10.15;;;8.25;;
10979;SDS011;5543;51.734;8.744;2023-06-22T02:36:27;11.40;;;9.20;;
10979;SDS011;5543;51.734;8.744;2023-06-22T02:38:57;11.32;;;8.77;;
10979;SDS011;5543;51.734;8.744;2023-06-22T02:41:27;12.73;;;9.38;;
10979;SDS011;5543;51.734;8.744;2023-06-22T02:43:55;11.45;;;8.48;;
10979;SDS011;5543;51.734;8.744;2023-06-22T02:46:23;13.73;;;8.63;;
10979;SDS011;5543;51.734;8.744;2023-06-22T02:48:51;15.02;;;9.32;;
10979;SDS011;5543;51.734;8.744;2023-06-22T02:51:21;11.80;;;9.20;;
10979;SDS011;5543;51.734;8.744;2023-06-22T02:53:49;12.23;;;9.48;;
10979;SDS011;5543;51.734;8.744;2023-06-22T02:56:23;11.50;;;8.27;;
10979;SDS011;5543;51.734;8.744;2023-06-22T02:58:52;13.20;;;8.60;;
10979;SDS011;5543;51.734;8.744;2023-06-22T03:01:20;9.23;;;8.18;;
10979;SDS011;5543;51.734;8.744;2023-06-22T03:03:50;10.70;;;8.40;;
10979;SDS011;5543;51.734;8.744;2023-06-22T03:06:18;10.90;;;8.43;;
10979;SDS011;5543;51.734;8.744;2023-06-22T03:08:50;10.98;;;8.35;;
10979;SDS011;5543;51.734;8.744;2023-06-22T03:11:18;10.75;;;8.10;;
10979;SDS011;5543;51.734;8.744;2023-06-22T03:13:46;11.35;;;8.82;;
10979;SDS011;5543;51.734;8.744;2023-06-22T03:16:14;9.23;;;8.15;;
10979;SDS011;5543;51.734;8.744;2023-06-22T03:18:42;12.77;;;9.27;;
10979;SDS011;5543;51.734;8.744;2023-06-22T03:21:10;10.93;;;8.23;;
10979;SDS011;5543;51.734;8.744;2023-06-22T03:23:40;11.05;;;8.57;;
10979;SDS011;5543;51.734;8.744;2023-06-22T03:26:08;13.65;;;7.90;;
10979;SDS011;5543;51.734;8.744;2023-06-22T03:28:37;10.70;;;8.43;;
10979;SDS011;5543;51.734;8.744;2023-06-22T03:31:05;11.60;;;8.90;;
10979;SDS011;5543;51.734;8.744;2023-06-22T03:33:34;14.57;;;9.15;;
10979;SDS011;5543;51.734;8.744;2023-06-22T03:36:02;10.13;;;7.90;;
10979;SDS011;5543;51.734;8.744;2023-06-22T03:38:30;11.65;;;7.57;;
10979;SDS011;5543;51.734;8.744;2023-06-22T03:41:00;13.02;;;8.75;;
10979;SDS011;5543;51.734;8.744;2023-06-22T03:43:28;10.18;;;8.20;;
10979;SDS011;5543;51.734;8.744;2023-06-22T03:45:56;14.02;;;8.15;;
10979;SDS011;5543;51.734;8.744;2023-06-22T03:48:24;10.05;;;8.13;;
10979;SDS011;5543;51.734;8.744;2023-06-22T03:50:52;13.23;;;9.05;;
10979;SDS011;5543;51.734;8.744;2023-06-22T03:53:20;10.95;;;8.45;;
10979;SDS011;5543;51.734;8.744;2023-06-22T03:55:48;14.35;;;8.07;;
10979;SDS011;5543;51.734;8.744;2023-06-22T03:58:19;12.40;;;8.77;;
10979;SDS011;5543;51.734;8.744;2023-06-22T04:00:48;12.68;;;8.50;;
10979;SDS011;5543;51.734;8.744;2023-06-22T04:03:17;9.30;;;7.30;;
10979;SDS011;5543;51.734;8.744;2023-06-22T04:05:46;11.88;;;8.77;;
10979;SDS011;5543;51.734;8.744;2023-06-22T04:08:15;11.98;;;8.07;;
10979;SDS011;5543;51.734;8.744;2023-06-22T04:10:43;11.60;;;7.22;;
10979;SDS011;5543;51.734;8.744;2023-06-22T04:13:11;9.38;;;7.90;;
10979;SDS011;5543;51.734;8.744;2023-06-22T04:15:40;9.65;;;7.40;;
10979;SDS011;5543;51.734;8.744;2023-06-22T04:18:08;10.75;;;7.80;;
10979;SDS011;5543;51.734;8.744;2023-06-22T04:20:36;12.50;;;8.68;;
10979;SDS011;5543;51.734;8.744;2023-06-22T04:23:04;9.93;;;7.90;;
10979;SDS011;5543;51.734;8.744;2023-06-22T04:25:33;9.88;;;8.30;;
10979;SDS011;5543;51.734;8.744;2023-06-22T04:28:01;9.35;;;7.85;;
10979;SDS011;5543;51.734;8.744;2023-06-22T04:30:32;10.25;;;8.45;;
10979;SDS011;5543;51.734;8.744;2023-06-22T04:33:01;11.35;;;8.70;;
10979;SDS011;5543;51.734;8.744;2023-06-22T04:35:30;7.97;;;7.18;;
10979;SDS011;5543;51.734;8.744;2023-06-22T04:37:58;9.40;;;7.43;;
10979;SDS011;5543;51.734;8.744;2023-06-22T04:40:26;9.50;;;7.78;;
10979;SDS011;5543;51.734;8.744;2023-06-22T04:42:55;12.48;;;7.95;;
10979;SDS011;5543;51.734;8.744;2023-06-22T04:45:23;10.43;;;7.95;;
10979;SDS011;5543;51.734;8.744;2023-06-22T04:47:51;12.27;;;8.68;;
10979;SDS011;5543;51.734;8.744;2023-06-22T04:50:21;10.35;;;8.48;;
10979;SDS011;5543;51.734;8.744;2023-06-22T04:52:50;11.02;;;7.80;;
10979;SDS011;5543;51.734;8.744;2023-06-22T04:55:19;10.80;;;8.48;;
10979;SDS011;5543;51.734;8.744;2023-06-22T04:57:48;10.70;;;7.53;;
10979;SDS011;5543;51.734;8.744;2023-06-22T05:00:16;10.10;;;8.25;;
10979;SDS011;5543;51.734;8.744;2023-06-22T05:02:49;15.73;;;8.55;;
10979;SDS011;5543;51.734;8.744;2023-06-22T05:05:25;9.55;;;7.40;;
10979;SDS011;5543;51.734;8.744;2023-06-22T05:07:53;11.15;;;8.48;;
10979;SDS011;5543;51.734;8.744;2023-06-22T05:10:26;12.68;;;8.73;;
10979;SDS011;5543;51.734;8.744;2023-06-22T05:12:55;10.77;;;8.35;;
10979;SDS011;5543;51.734;8.744;2023-06-22T05:15:23;9.77;;;8.10;;
10979;SDS011;5543;51.734;8.744;2023-06-22T05:17:56;11.00;;;8.05;;
10979;SDS011;5543;51.734;8.744;2023-06-22T05:20:26;13.02;;;8.13;;
10979;SDS011;5543;51.734;8.744;2023-06-22T05:22:55;10.20;;;7.32;;
10979;SDS011;5543;51.734;8.744;2023-06-22T05:25:23;9.75;;;7.47;;
10979;SDS011;5543;51.734;8.744;2023-06-22T05:27:51;12.02;;;8.43;;
10979;SDS011;5543;51.734;8.744;2023-06-22T05:30:19;10.30;;;7.93;;
10979;SDS011;5543;51.734;8.744;2023-06-22T05:32:47;10.30;;;8.25;;
10979;SDS011;5543;51.734;8.744;2023-06-22T05:35:15;11.15;;;7.63;;
10979;SDS011;5543;51.734;8.744;2023-06-22T05:37:45;9.10;;;7.28;;
10979;SDS011;5543;51.734;8.744;2023-06-22T05:40:14;8.52;;;7.15;;
10979;SDS011;5543;51.734;8.744;2023-06-22T05:42:42;10.52;;;7.63;;
10979;SDS011;5543;51.734;8.744;2023-06-22T05:45:10;10.10;;;8.18;;
10979;SDS011;5543;51.734;8.744;2023-06-22T05:47:38;12.35;;;7.82;;
10979;SDS011;5543;51.734;8.744;2023-06-22T05:50:07;10.13;;;7.35;;
10979;SDS011;5543;51.734;8.744;2023-06-22T05:52:38;12.65;;;7.47;;
10979;SDS011;5543;51.734;8.744;2023-06-22T05:55:08;11.98;;;8.30;;
10979;SDS011;5543;51.734;8.744;2023-06-22T05:57:36;9.30;;;7.22;;
10979;SDS011;5543;51.734;8.744;2023-06-22T06:00:05;11.25;;;8.18;;
10979;SDS011;5543;51.734;8.744;2023-06-22T06:02:37;11.80;;;7.53;;
10979;SDS011;5543;51.734;8.744;2023-06-22T06:05:10;9.77;;;7.65;;
10979;SDS011;5543;51.734;8.744;2023-06-22T06:07:40;10.27;;;7.22;;
10979;SDS011;5543;51.734;8.744;2023-06-22T06:10:10;8.95;;;6.90;;
10979;SDS011;5543;51.734;8.744;2023-06-22T06:12:38;8.82;;;7.05;;
10979;SDS011;5543;51.734;8.744;2023-06-22T06:15:06;10.25;;;8.00;;
10979;SDS011;5543;51.734;8.744;2023-06-22T06:17:44;10.02;;;7.65;;
10979;SDS011;5543;51.734;8.744;2023-06-22T06:20:13;10.13;;;8.30;;
10979;SDS011;5543;51.734;8.744;2023-06-22T06:22:41;10.73;;;7.50;;
10979;SDS011;5543;51.734;8.744;2023-06-22T06:25:11;9.50;;;7.50;;
10979;SDS011;5543;51.734;8.744;2023-06-22T06:27:42;9.32;;;7.18;;
10979;SDS011;5543;51.734;8.744;2023-06-22T06:30:10;10.05;;;7.55;;
10979;SDS011;5543;51.734;8.744;2023-06-22T06:32:40;8.80;;;6.95;;
10979;SDS011;5543;51.734;8.744;2023-06-22T06:35:09;10.65;;;7.00;;
10979;SDS011;5543;51.734;8.744;2023-06-22T06:37:38;8.68;;;6.90;;
10979;SDS011;5543;51.734;8.744;2023-06-22T06:40:08;11.68;;;6.68;;
10979;SDS011;5543;51.734;8.744;2023-06-22T06:42:39;11.48;;;6.93;;
10979;SDS011;5543;51.734;8.744;2023-06-22T06:45:10;7.82;;;5.90;;
10979;SDS011;5543;51.734;8.744;2023-06-22T06:47:39;7.40;;;5.97;;
10979;SDS011;5543;51.734;8.744;2023-06-22T06:50:07;9.60;;;6.80;;
10979;SDS011;5543;51.734;8.744;2023-06-22T06:52:36;9.35;;;7.20;;
10979;SDS011;5543;51.734;8.744;2023-06-22T06:55:05;8.75;;;6.57;;
10979;SDS011;5543;51.734;8.744;2023-06-22T06:57:36;8.35;;;6.50;;
10979;SDS011;5543;51.734;8.744;2023-06-22T07:00:06;12.10;;;8.00;;
10979;SDS011;5543;51.734;8.744;2023-06-22T07:02:38;10.02;;;7.30;;
10979;SDS011;5543;51.734;8.744;2023-06-22T07:05:07;8.48;;;6.38;;
10979;SDS011;5543;51.734;8.744;2023-06-22T07:07:36;8.23;;;6.90;;
10979;SDS011;5543;51.734;8.744;2023-06-22T07:10:05;9.52;;;6.22;;
10979;SDS011;5543;51.734;8.744;2023-06-22T07:12:34;9.38;;;7.68;;
10979;SDS011;5543;51.734;8.744;2023-06-22T07:15:02;10.57;;;7.78;;
10979;SDS011;5543;51.734;8.744;2023-06-22T07:17:32;11.93;;;7.80;;
10979;SDS011;5543;51.734;8.744;2023-06-22T07:20:01;9.38;;;7.25;;
10979;SDS011;5543;51.734;8.744;2023-06-22T07:22:34;13.00;;;8.77;;
10979;SDS011;5543;51.734;8.744;2023-06-22T07:25:02;9.88;;;7.90;;
10979;SDS011;5543;51.734;8.744;2023-06-22T07:27:35;9.25;;;7.35;;
10979;SDS011;5543;51.734;8.744;2023-06-22T07:30:05;11.88;;;8.57;;
10979;SDS011;5543;51.734;8.744;2023-06-22T07:32:35;8.45;;;6.70;;
10979;SDS011;5543;51.734;8.744;2023-06-22T07:35:05;8.55;;;6.88;;
10979;SDS011;5543;51.734;8.744;2023-06-22T07:37:33;11.38;;;8.32;;
10979;SDS011;5543;51.734;8.744;2023-06-22T07:40:02;11.00;;;7.68;;
10979;SDS011;5543;51.734;8.744;2023-06-22T07:42:32;9.63;;;7.47;;
10979;SDS011;5543;51.734;8.744;2023-06-22T07:45:01;9.45;;;7.93;;
10979;SDS011;5543;51.734;8.744;2023-06-22T07:47:30;10.57;;;7.75;;
10979;SDS011;5543;51.734;8.744;2023-06-22T07:50:03;11.82;;;7.53;;
10979;SDS011;5543;51.734;8.744;2023-06-22T07:52:32;10.32;;;8.13;;
10979;SDS011;5543;51.734;8.744;2023-06-22T07:55:00;10.95;;;7.10;;
10979;SDS011;5543;51.734;8.744;2023-06-22T07:57:28;8.77;;;6.15;;
10979;SDS011;5543;51.734;8.744;2023-06-22T08:00:00;9.65;;;7.57;;
10979;SDS011;5543;51.734;8.744;2023-06-22T08:02:37;9.60;;;7.18;;
10979;SDS011;5543;51.734;8.744;2023-06-22T08:05:07;10.20;;;7.10;;
10979;SDS011;5543;51.734;8.744;2023-06-22T08:07:47;7.28;;;6.43;;
10979;SDS011;5543;51.734;8.744;2023-06-22T08:10:15;7.60;;;6.38;;
10979;SDS011;5543;51.734;8.744;2023-06-22T08:12:43;8.65;;;7.22;;
10979;SDS011;5543;51.734;8.744;2023-06-22T08:15:11;10.57;;;8.18;;
10979;SDS011;5543;51.734;8.744;2023-06-22T08:17:40;10.68;;;7.05;;
10979;SDS011;5543;51.734;8.744;2023-06-22T08:20:10;7.53;;;5.95;;
10979;SDS011;5543;51.734;8.744;2023-06-22T08:22:39;8.05;;;6.00;;
10979;SDS011;5543;51.734;8.744;2023-06-22T08:25:08;6.80;;;5.43;;
10979;SDS011;5543;51.734;8.744;2023-06-22T08:27:36;8.23;;;5.63;;
10979;SDS011;5543;51.734;8.744;2023-06-22T08:30:05;6.93;;;5.80;;
10979;SDS011;5543;51.734;8.744;2023-06-22T08:32:34;6.63;;;5.32;;
10979;SDS011;5543;51.734;8.744;2023-06-22T08:35:02;8.00;;;5.45;;
10979;SDS011;5543;51.734;8.744;2023-06-22T08:37:33;6.95;;;5.55;;
10979;SDS011;5543;51.734;8.744;2023-06-22T08:40:03;8.95;;;5.55;;
10979;SDS011;5543;51.734;8.744;2023-06-22T08:42:33;7.53;;;5.68;;
10979;SDS011;5543;51.734;8.744;2023-06-22T08:45:01;6.70;;;5.70;;
10979;SDS011;5543;51.734;8.744;2023-06-22T08:47:30;5.60;;;4.43;;
10979;SDS011;5543;51.734;8.744;2023-06-22T08:49:58;7.55;;;5.40;;
10979;SDS011;5543;51.734;8.744;2023-06-22T08:52:28;6.45;;;5.30;;
10979;SDS011;5543;51.734;8.744;2023-06-22T08:54:57;7.25;;;4.90;;
10979;SDS011;5543;51.734;8.744;2023-06-22T08:57:25;6.43;;;5.13;;
10979;SDS011;5543;51.734;8.744;2023-06-22T08:59:53;13.63;;;11.43;;
10979;SDS011;5543;51.734;8.744;2023-06-22T09:02:25;6.60;;;4.90;;
10979;SDS011;5543;51.734;8.744;2023-06-22T09:04:58;6.57;;;4.95;;
10979;SDS011;5543;51.734;8.744;2023-06-22T09:07:26;6.40;;;5.10;;
10979;SDS011;5543;51.734;8.744;2023-06-22T09:09:55;6.53;;;5.38;;
10979;SDS011;5543;51.734;8.744;2023-06-22T09:12:24;6.43;;;4.90;;
10979;SDS011;5543;51.734;8.744;2023-06-22T09:14:53;5.57;;;4.80;;
10979;SDS011;5543;51.734;8.744;2023-06-22T09:17:21;5.93;;;5.38;;
10979;SDS011;5543;51.734;8.744;2023-06-22T09:19:50;7.55;;;5.72;;
10979;SDS011;5543;51.734;8.744;2023-06-22T09:22:18;7.07;;;5.53;;
10979;SDS011;5543;51.734;8.744;2023-06-22T09:24:46;5.88;;;5.00;;
10979;SDS011;5543;51.734;8.744;2023-06-22T09:27:14;6.72;;;5.43;;
10979;SDS011;5543;51.734;8.744;2023-06-22T09:29:44;6.20;;;5.40;;
10979;SDS011;5543;51.734;8.744;2023-06-22T09:32:12;5.88;;;5.07;;
10979;SDS011;5543;51.734;8.744;2023-06-22T09:34:41;5.65;;;5.05;;
10979;SDS011;5543;51.734;8.744;2023-06-22T09:37:09;5.25;;;4.75;;
10979;SDS011;5543;51.734;8.744;2023-06-22T09:39:37;5.80;;;4.72;;
10979;SDS011;5543;51.734;8.744;2023-06-22T09:42:06;4.60;;;4.10;;
10979;SDS011;5543;51.734;8.744;2023-06-22T09:44:34;4.60;;;3.83;;
10979;SDS011;5543;51.734;8.744;2023-06-22T09:47:04;5.68;;;4.55;;
10979;SDS011;5543;51.734;8.744;2023-06-22T09:49:33;4.65;;;4.18;;
10979;SDS011;5543;51.734;8.744;2023-06-22T09:52:13;5.00;;;4.50;;
10979;SDS011;5543;51.734;8.744;2023-06-22T09:54:41;4.93;;;4.15;;
10979;SDS011;5543;51.734;8.744;2023-06-22T09:57:09;4.63;;;4.18;;
10979;SDS011;5543;51.734;8.744;2023-06-22T09:59:37;8.73;;;7.20;;
10979;SDS011;5543;51.734;8.744;2023-06-22T10:02:07;11.63;;;8.88;;
10979;SDS011;5543;51.734;8.744;2023-06-22T10:04:36;5.10;;;4.43;;
10979;SDS011;5543;51.734;8.744;2023-06-22T10:07:06;5.03;;;4.53;;
10979;SDS011;5543;51.734;8.744;2023-06-22T10:09:34;5.00;;;4.40;;
10979;SDS011;5543;51.734;8.744;2023-06-22T10:12:02;6.05;;;4.47;;
10979;SDS011;5543;51.734;8.744;2023-06-22T10:14:31;5.25;;;4.60;;
10979;SDS011;5543;51.734;8.744;2023-06-22T10:16:59;5.22;;;4.43;;
10979;SDS011;5543;51.734;8.744;2023-06-22T10:19:28;4.75;;;4.35;;
10979;SDS011;5543;51.734;8.744;2023-06-22T10:21:57;5.90;;;4.55;;
10979;SDS011;5543;51.734;8.744;2023-06-22T10:24:25;4.80;;;4.32;;
10979;SDS011;5543;51.734;8.744;2023-06-22T10:26:53;4.35;;;3.88;;
10979;SDS011;5543;51.734;8.744;2023-06-22T10:29:21;4.90;;;4.38;;
10979;SDS011;5543;51.734;8.744;2023-06-22T10:31:50;5.90;;;4.72;;
10979;SDS011;5543;51.734;8.744;2023-06-22T10:34:18;5.10;;;4.40;;
10979;SDS011;5543;51.734;8.744;2023-06-22T10:36:47;4.80;;;4.28;;
10979;SDS011;5543;51.734;8.744;2023-06-22T10:39:15;4.72;;;4.15;;
10979;SDS011;5543;51.734;8.744;2023-06-22T10:41:44;6.50;;;4.80;;
10979;SDS011;5543;51.734;8.744;2023-06-22T10:44:12;5.00;;;4.30;;
10979;SDS011;5543;51.734;8.744;2023-06-22T10:46:40;5.55;;;4.60;;
10979;SDS011;5543;51.734;8.744;2023-06-22T10:49:08;5.35;;;4.55;;
10979;SDS011;5543;51.734;8.744;2023-06-22T10:51:36;5.00;;;4.22;;
10979;SDS011;5543;51.734;8.744;2023-06-22T10:54:05;5.57;;;4.97;;
10979;SDS011;5543;51.734;8.744;2023-06-22T10:56:33;5.38;;;4.72;;
10979;SDS011;5543;51.734;8.744;2023-06-22T10:59:01;5.07;;;4.47;;
10979;SDS011;5543;51.734;8.744;2023-06-22T11:01:29;5.97;;;4.72;;
10979;SDS011;5543;51.734;8.744;2023-06-22T11:04:19;5.70;;;4.43;;
10979;SDS011;5543;51.734;8.744;2023-06-22T11:06:48;7.40;;;5.07;;
10979;SDS011;5543;51.734;8.744;2023-06-22T11:09:18;6.28;;;5.25;;
10979;SDS011;5543;51.734;8.744;2023-06-22T11:11:52;6.90;;;5.15;;
10979;SDS011;5543;51.734;8.744;2023-06-22T11:14:21;9.80;;;4.75;;
10979;SDS011;5543;51.734;8.744;2023-06-22T11:16:49;6.60;;;4.72;;
10979;SDS011;5543;51.734;8.744;2023-06-22T11:19:17;8.23;;;5.15;;
10979;SDS011;5543;51.734;8.744;2023-06-22T11:21:46;6.25;;;4.97;;
10979;SDS011;5543;51.734;8.744;2023-06-22T11:24:14;6.70;;;4.70;;
10979;SDS011;5543;51.734;8.744;2023-06-22T11:26:44;5.72;;;5.03;;
10979;SDS011;5543;51.734;8.744;2023-06-22T11:29:12;5.63;;;4.80;;
10979;SDS011;5543;51.734;8.744;2023-06-22T11:31:57;6.13;;;4.45;;
10979;SDS011;5543;51.734;8.744;2023-06-22T11:34:25;5.15;;;4.65;;
10979;SDS011;5543;51.734;8.744;2023-06-22T11:36:54;5.07;;;4.13;;
10979;SDS011;5543;51.734;8.744;2023-06-22T11:39:22;6.10;;;4.93;;
10979;SDS011;5543;51.734;8.744;2023-06-22T11:42:08;5.63;;;4.45;;
10979;SDS011;5543;51.734;8.744;2023-06-22T11:44:36;4.95;;;4.15;;
10979;SDS011;5543;51.734;8.744;2023-06-22T11:47:05;5.28;;;4.60;;
10979;SDS011;5543;51.734;8.744;2023-06-22T11:49:33;5.97;;;4.80;;
10979;SDS011;5543;51.734;8.744;2023-06-22T11:52:02;5.15;;;4.50;;
10979;SDS011;5543;51.734;8.744;2023-06-22T11:54:30;8.63;;;4.85;;
10979;SDS011;5543;51.734;8.744;2023-06-22T11:56:58;4.18;;;3.78;;
10979;SDS011;5543;51.734;8.744;2023-06-22T11:59:28;4.90;;;4.10;;
10979;SDS011;5543;51.734;8.744;2023-06-22T12:01:56;7.03;;;4.95;;
10979;SDS011;5543;51.734;8.744;2023-06-22T12:04:25;4.97;;;4.28;;
10979;SDS011;5543;51.734;8.744;2023-06-22T12:06:53;5.40;;;4.45;;
10979;SDS011;5543;51.734;8.744;2023-06-22T12:09:22;5.45;;;4.47;;
10979;SDS011;5543;51.734;8.744;2023-06-22T12:11:50;4.90;;;4.28;;
10979;SDS011;5543;51.734;8.744;2023-06-22T12:14:18;5.30;;;4.75;;
10979;SDS011;5543;51.734;8.744;2023-06-22T12:16:48;6.25;;;5.30;;
10979;SDS011;5543;51.734;8.744;2023-06-22T12:19:16;5.82;;;4.78;;
10979;SDS011;5543;51.734;8.744;2023-06-22T12:21:44;8.23;;;5.75;;
10979;SDS011;5543;51.734;8.744;2023-06-22T12:24:12;6.70;;;5.40;;
10979;SDS011;5543;51.734;8.744;2023-06-22T12:26:41;6.22;;;5.38;;
10979;SDS011;5543;51.734;8.744;2023-06-22T12:29:09;9.68;;;8.00;;
10979;SDS011;5543;51.734;8.744;2023-06-22T12:31:37;10.52;;;7.68;;
10979;SDS011;5543;51.734;8.744;2023-06-22T12:34:17;8.20;;;6.38;;
10979;SDS011;5543;51.734;8.744;2023-06-22T12:36:46;7.53;;;6.13;;
10979;SDS011;5543;51.734;8.744;2023-06-22T12:39:14;8.73;;;6.50;;
10979;SDS011;5543;51.734;8.744;2023-06-22T12:41:42;9.52;;;6.78;;
10979;SDS011;5543;51.734;8.744;2023-06-22T12:44:11;9.23;;;7.35;;
10979;SDS011;5543;51.734;8.744;2023-06-22T12:46:39;7.57;;;6.43;;
10979;SDS011;5543;51.734;8.744;2023-06-22T12:49:07;10.48;;;7.22;;
10979;SDS011;5543;51.734;8.744;2023-06-22T12:51:40;9.25;;;7.28;;
10979;SDS011;5543;51.734;8.744;2023-06-22T12:54:09;8.55;;;6.97;;
10979;SDS011;5543;51.734;8.744;2023-06-22T12:56:38;9.38;;;7.47;;
10979;SDS011;5543;51.734;8.744;2023-06-22T12:59:06;12.63;;;8.00;;
10979;SDS011;5543;51.734;8.744;2023-06-22T13:01:34;10.23;;;7.82;;
10979;SDS011;5543;51.734;8.744;2023-06-22T13:04:03;10.40;;;7.70;;
10979;SDS011;5543;51.734;8.744;2023-06-22T13:06:31;11.52;;;8.07;;
10979;SDS011;5543;51.734;8.744;2023-06-22T13:09:01;7.93;;;6.32;;
10979;SDS011;5543;51.734;8.744;2023-06-22T13:11:34;11.95;;;9.52;;
10979;SDS011;5543;51.734;8.744;2023-06-22T13:14:02;10.90;;;8.25;;
10979;SDS011;5543;51.734;8.744;2023-06-22T13:16:32;11.77;;;8.98;;
10979;SDS011;5543;51.734;8.744;2023-06-22T13:19:00;11.43;;;8.93;;
10979;SDS011;5543;51.734;8.744;2023-06-22T13:21:28;12.02;;;9.02;;
10979;SDS011;5543;51.734;8.744;2023-06-22T13:23:57;14.55;;;8.98;;
10979;SDS011;5543;51.734;8.744;2023-06-22T13:26:26;12.73;;;8.40;;
10979;SDS011;5543;51.734;8.744;2023-06-22T13:28:55;10.45;;;8.30;;
10979;SDS011;5543;51.734;8.744;2023-06-22T13:31:23;10.98;;;8.75;;
10979;SDS011;5543;51.734;8.744;2023-06-22T13:33:51;13.95;;;9.70;;
10979;SDS011;5543;51.734;8.744;2023-06-22T13:36:20;11.68;;;9.05;;
10979;SDS011;5543;51.734;8.744;2023-06-22T13:38:49;12.15;;;9.10;;
10979;SDS011;5543;51.734;8.744;2023-06-22T13:41:17;13.32;;;10.13;;
10979;SDS011;5543;51.734;8.744;2023-06-22T13:43:47;13.45;;;9.40;;
10979;SDS011;5543;51.734;8.744;2023-06-22T13:46:15;13.30;;;9.27;;
10979;SDS011;5543;51.734;8.744;2023-06-22T13:48:43;16.05;;;9.40;;
10979;SDS011;5543;51.734;8.744;2023-06-22T13:51:11;12.88;;;9.07;;
10979;SDS011;5543;51.734;8.744;2023-06-22T13:53:39;12.73;;;9.48;;
10979;SDS011;5543;51.734;8.744;2023-06-22T13:56:07;10.07;;;8.32;;
10979;SDS011;5543;51.734;8.744;2023-06-22T13:58:36;15.57;;;9.30;;
10979;SDS011;5543;51.734;8.744;2023-06-22T14:01:05;21.08;;;10.60;;
10979;SDS011;5543;51.734;8.744;2023-06-22T14:03:36;13.85;;;9.90;;
10979;SDS011;5543;51.734;8.744;2023-06-22T14:06:04;12.63;;;8.88;;
10979;SDS011;5543;51.734;8.744;2023-06-22T14:08:32;14.30;;;10.13;;
10979;SDS011;5543;51.734;8.744;2023-06-22T14:11:04;13.95;;;9.75;;
10979;SDS011;5543;51.734;8.744;2023-06-22T14:13:34;14.40;;;10.38;;
10979;SDS011;5543;51.734;8.744;2023-06-22T14:16:03;12.27;;;9.55;;
10979;SDS011;5543;51.734;8.744;2023-06-22T14:18:33;16.92;;;11.48;;
10979;SDS011;5543;51.734;8.744;2023-06-22T14:21:01;12.35;;;9.57;;
10979;SDS011;5543;51.734;8.744;2023-06-22T14:23:30;13.23;;;10.10;;
10979;SDS011;5543;51.734;8.744;2023-06-22T14:25:58;15.32;;;10.82;;
10979;SDS011;5543;51.734;8.744;2023-06-22T14:28:26;15.32;;;10.50;;
10979;SDS011;5543;51.734;8.744;2023-06-22T14:30:54;14.23;;;10.70;;
10979;SDS011;5543;51.734;8.744;2023-06-22T14:33:23;16.27;;;10.48;;
10979;SDS011;5543;51.734;8.744;2023-06-22T14:35:52;14.15;;;9.85;;
10979;SDS011;5543;51.734;8.744;2023-06-22T14:38:21;13.15;;;9.98;;
10979;SDS011;5543;51.734;8.744;2023-06-22T14:40:49;13.82;;;10.10;;
10979;SDS011;5543;51.734;8.744;2023-06-22T14:43:37;14.80;;;10.07;;
10979;SDS011;5543;51.734;8.744;2023-06-22T14:46:05;13.07;;;9.55;;
10979;SDS011;5543;51.734;8.744;2023-06-22T14:48:33;19.50;;;10.27;;
10979;SDS011;5543;51.734;8.744;2023-06-22T14:51:03;13.23;;;10.20;;
10979;SDS011;5543;51.734;8.744;2023-06-22T14:53:31;15.07;;;10.55;;
10979;SDS011;5543;51.734;8.744;2023-06-22T14:55:59;24.85;;;18.65;;
10979;SDS011;5543;51.734;8.744;2023-06-22T14:58:31;28.40;;;20.67;;
10979;SDS011;5543;51.734;8.744;2023-06-22T15:01:00;17.05;;;12.07;;
10979;SDS011;5543;51.734;8.744;2023-06-22T15:03:29;16.80;;;11.77;;
10979;SDS011;5543;51.734;8.744;2023-06-22T15:05:59;15.68;;;11.57;;